sensor_id;sensor_type;location;lat;lon;timestamp;P1;durP1;ratioP1;P2;durP2;ratioP2
69627;SDS011;56850;51.984;5.088;2022-07-09T00:01:48;20.92;;;16.40;;
69627;SDS011;56850;51.984;5.088;2022-07-09T00:04:15;21.90;;;16.17;;
69627;SDS011;56850;51.984;5.088;2022-07-09T00:06:42;23.50;;;17.08;;
69627;SDS011;56850;51.984;5.088;2022-07-09T00:09:09;20.15;;;14.93;;
69627;SDS011;56850;51.984;5.088;2022-07-09T00:11:36;21.95;;;16.38;;
69627;SDS011;56850;51.984;5.088;2022-07-09T00:14:03;22.60;;;15.15;;
69627;SDS011;56850;51.984;5.088;2022-07-09T00:16:30;23.05;;;16.73;;
69627;SDS011;56850;51.984;5.088;2022-07-09T00:18:57;23.95;;;17.30;;
69627;SDS011;56850;51.984;5.088;2022-07-09T00:21:24;27.00;;;17.23;;
69627;SDS011;56850;51.984;5.088;2022-07-09T00:23:51;24.73;;;17.50;;
69627;SDS011;56850;51.984;5.088;2022-07-09T00:26:18;25.27;;;17.52;;
69627;SDS011;56850;51.984;5.088;2022-07-09T00:28:45;26.27;;;17.13;;
69627;SDS011;56850;51.984;5.088;2022-07-09T00:31:12;25.60;;;18.08;;
69627;SDS011;56850;51.984;5.088;2022-07-09T00:33:39;23.75;;;18.27;;
69627;SDS011;56850;51.984;5.088;2022-07-09T00:36:06;24.52;;;17.35;;
69627;SDS011;56850;51.984;5.088;2022-07-09T00:38:33;23.23;;;17.83;;
69627;SDS011;56850;51.984;5.088;2022-07-09T00:41:02;23.35;;;16.98;;
69627;SDS011;56850;51.984;5.088;2022-07-09T00:43:29;25.45;;;17.50;;
69627;SDS011;56850;51.984;5.088;2022-07-09T00:45:57;22.60;;;17.63;;
69627;SDS011;56850;51.984;5.088;2022-07-09T00:48:24;23.55;;;17.85;;
69627;SDS011;56850;51.984;5.088;2022-07-09T00:50:52;26.08;;;17.98;;
69627;SDS011;56850;51.984;5.088;2022-07-09T00:53:21;24.35;;;17.35;;
69627;SDS011;56850;51.984;5.088;2022-07-09T00:55:51;24.92;;;17.67;;
69627;SDS011;56850;51.984;5.088;2022-07-09T00:58:19;22.05;;;17.85;;
69627;SDS011;56850;51.984;5.088;2022-07-09T01:00:48;22.52;;;17.05;;
69627;SDS011;56850;51.984;5.088;2022-07-09T01:03:15;24.08;;;17.02;;
69627;SDS011;56850;51.984;5.088;2022-07-09T01:05:43;21.55;;;17.02;;
69627;SDS011;56850;51.984;5.088;2022-07-09T01:08:10;23.30;;;16.90;;
69627;SDS011;56850;51.984;5.088;2022-07-09T01:10:37;23.25;;;17.05;;
69627;SDS011;56850;51.984;5.088;2022-07-09T01:13:04;28.58;;;19.00;;
69627;SDS011;56850;51.984;5.088;2022-07-09T01:15:31;21.77;;;17.60;;
69627;SDS011;56850;51.984;5.088;2022-07-09T01:17:58;24.67;;;18.92;;
69627;SDS011;56850;51.984;5.088;2022-07-09T01:20:26;28.75;;;20.75;;
69627;SDS011;56850;51.984;5.088;2022-07-09T01:22:58;27.08;;;18.98;;
69627;SDS011;56850;51.984;5.088;2022-07-09T01:25:38;26.20;;;19.98;;
69627;SDS011;56850;51.984;5.088;2022-07-09T01:28:12;22.25;;;18.30;;
69627;SDS011;56850;51.984;5.088;2022-07-09T01:30:40;23.75;;;19.05;;
69627;SDS011;56850;51.984;5.088;2022-07-09T01:33:07;29.40;;;19.50;;
69627;SDS011;56850;51.984;5.088;2022-07-09T01:35:34;25.90;;;18.75;;
69627;SDS011;56850;51.984;5.088;2022-07-09T01:38:01;22.85;;;18.38;;
69627;SDS011;56850;51.984;5.088;2022-07-09T01:40:28;26.60;;;18.90;;
69627;SDS011;56850;51.984;5.088;2022-07-09T01:42:56;27.98;;;18.25;;
69627;SDS011;56850;51.984;5.088;2022-07-09T01:45:22;24.75;;;18.38;;
69627;SDS011;56850;51.984;5.088;2022-07-09T01:47:49;24.52;;;17.52;;
69627;SDS011;56850;51.984;5.088;2022-07-09T01:50:17;23.58;;;18.63;;
69627;SDS011;56850;51.984;5.088;2022-07-09T01:52:43;28.75;;;19.23;;
69627;SDS011;56850;51.984;5.088;2022-07-09T01:55:10;28.98;;;19.45;;
69627;SDS011;56850;51.984;5.088;2022-07-09T01:57:38;26.10;;;20.27;;
69627;SDS011;56850;51.984;5.088;2022-07-09T02:00:05;27.38;;;21.27;;
69627;SDS011;56850;51.984;5.088;2022-07-09T02:02:37;25.08;;;19.55;;
69627;SDS011;56850;51.984;5.088;2022-07-09T02:05:05;28.73;;;20.17;;
69627;SDS011;56850;51.984;5.088;2022-07-09T02:07:32;28.17;;;20.83;;
69627;SDS011;56850;51.984;5.088;2022-07-09T02:10:00;29.73;;;21.27;;
69627;SDS011;56850;51.984;5.088;2022-07-09T02:12:27;28.33;;;21.08;;
69627;SDS011;56850;51.984;5.088;2022-07-09T02:14:54;30.30;;;20.48;;
69627;SDS011;56850;51.984;5.088;2022-07-09T02:17:21;29.13;;;21.85;;
69627;SDS011;56850;51.984;5.088;2022-07-09T02:19:48;31.88;;;22.23;;
69627;SDS011;56850;51.984;5.088;2022-07-09T02:22:15;32.08;;;22.35;;
69627;SDS011;56850;51.984;5.088;2022-07-09T02:24:42;28.20;;;22.58;;
69627;SDS011;56850;51.984;5.088;2022-07-09T02:27:09;34.10;;;22.20;;
69627;SDS011;56850;51.984;5.088;2022-07-09T02:29:36;30.13;;;21.23;;
69627;SDS011;56850;51.984;5.088;2022-07-09T02:32:03;30.20;;;21.17;;
69627;SDS011;56850;51.984;5.088;2022-07-09T02:34:30;29.67;;;21.48;;
69627;SDS011;56850;51.984;5.088;2022-07-09T02:36:57;32.88;;;22.85;;
69627;SDS011;56850;51.984;5.088;2022-07-09T02:39:24;33.25;;;22.15;;
69627;SDS011;56850;51.984;5.088;2022-07-09T02:41:51;27.75;;;20.73;;
69627;SDS011;56850;51.984;5.088;2022-07-09T02:44:18;26.70;;;21.02;;
69627;SDS011;56850;51.984;5.088;2022-07-09T02:46:45;31.20;;;22.47;;
69627;SDS011;56850;51.984;5.088;2022-07-09T02:49:12;31.50;;;20.60;;
69627;SDS011;56850;51.984;5.088;2022-07-09T02:51:39;30.55;;;21.52;;
69627;SDS011;56850;51.984;5.088;2022-07-09T02:54:06;31.95;;;22.25;;
69627;SDS011;56850;51.984;5.088;2022-07-09T02:56:33;28.77;;;20.60;;
69627;SDS011;56850;51.984;5.088;2022-07-09T02:59:01;28.98;;;20.88;;
69627;SDS011;56850;51.984;5.088;2022-07-09T03:01:29;30.17;;;19.67;;
69627;SDS011;56850;51.984;5.088;2022-07-09T03:03:56;24.60;;;19.38;;
69627;SDS011;56850;51.984;5.088;2022-07-09T03:06:23;29.65;;;19.67;;
69627;SDS011;56850;51.984;5.088;2022-07-09T03:08:50;27.60;;;19.92;;
69627;SDS011;56850;51.984;5.088;2022-07-09T03:11:18;27.75;;;19.63;;
69627;SDS011;56850;51.984;5.088;2022-07-09T03:13:45;25.55;;;18.95;;
69627;SDS011;56850;51.984;5.088;2022-07-09T03:16:12;27.27;;;21.05;;
69627;SDS011;56850;51.984;5.088;2022-07-09T03:18:39;26.65;;;19.77;;
69627;SDS011;56850;51.984;5.088;2022-07-09T03:21:06;26.13;;;19.15;;
69627;SDS011;56850;51.984;5.088;2022-07-09T03:23:35;28.35;;;20.58;;
69627;SDS011;56850;51.984;5.088;2022-07-09T03:26:03;25.15;;;19.77;;
69627;SDS011;56850;51.984;5.088;2022-07-09T03:28:31;27.33;;;19.88;;
69627;SDS011;56850;51.984;5.088;2022-07-09T03:30:59;26.63;;;19.63;;
69627;SDS011;56850;51.984;5.088;2022-07-09T03:33:26;26.13;;;19.92;;
69627;SDS011;56850;51.984;5.088;2022-07-09T03:35:54;25.80;;;19.73;;
69627;SDS011;56850;51.984;5.088;2022-07-09T03:38:22;25.48;;;18.65;;
69627;SDS011;56850;51.984;5.088;2022-07-09T03:40:50;23.80;;;18.30;;
69627;SDS011;56850;51.984;5.088;2022-07-09T03:43:17;23.52;;;18.27;;
69627;SDS011;56850;51.984;5.088;2022-07-09T03:45:44;23.58;;;17.98;;
69627;SDS011;56850;51.984;5.088;2022-07-09T03:48:12;25.98;;;19.60;;
69627;SDS011;56850;51.984;5.088;2022-07-09T03:50:39;29.13;;;19.20;;
69627;SDS011;56850;51.984;5.088;2022-07-09T03:53:06;26.23;;;18.00;;
69627;SDS011;56850;51.984;5.088;2022-07-09T03:55:33;26.35;;;18.85;;
69627;SDS011;56850;51.984;5.088;2022-07-09T03:57:59;25.92;;;18.80;;
69627;SDS011;56850;51.984;5.088;2022-07-09T04:00:26;25.98;;;18.88;;
69627;SDS011;56850;51.984;5.088;2022-07-09T04:02:54;29.17;;;20.00;;
69627;SDS011;56850;51.984;5.088;2022-07-09T04:05:21;27.88;;;18.75;;
69627;SDS011;56850;51.984;5.088;2022-07-09T04:07:48;25.40;;;20.20;;
69627;SDS011;56850;51.984;5.088;2022-07-09T04:10:15;27.08;;;19.00;;
69627;SDS011;56850;51.984;5.088;2022-07-09T04:12:43;28.98;;;20.70;;
69627;SDS011;56850;51.984;5.088;2022-07-09T04:15:10;23.73;;;18.42;;
69627;SDS011;56850;51.984;5.088;2022-07-09T04:17:37;22.10;;;17.70;;
69627;SDS011;56850;51.984;5.088;2022-07-09T04:20:04;25.83;;;19.35;;
69627;SDS011;56850;51.984;5.088;2022-07-09T04:22:32;23.88;;;19.27;;
69627;SDS011;56850;51.984;5.088;2022-07-09T04:24:58;27.15;;;18.88;;
69627;SDS011;56850;51.984;5.088;2022-07-09T04:27:25;28.23;;;19.85;;
69627;SDS011;56850;51.984;5.088;2022-07-09T04:29:53;24.70;;;18.58;;
69627;SDS011;56850;51.984;5.088;2022-07-09T04:32:20;27.17;;;18.95;;
69627;SDS011;56850;51.984;5.088;2022-07-09T04:34:47;24.83;;;19.17;;
69627;SDS011;56850;51.984;5.088;2022-07-09T04:37:14;28.73;;;18.17;;
69627;SDS011;56850;51.984;5.088;2022-07-09T04:39:40;26.70;;;18.83;;
69627;SDS011;56850;51.984;5.088;2022-07-09T04:42:07;25.63;;;18.20;;
69627;SDS011;56850;51.984;5.088;2022-07-09T04:44:36;25.27;;;18.13;;
69627;SDS011;56850;51.984;5.088;2022-07-09T04:47:04;25.95;;;17.77;;
69627;SDS011;56850;51.984;5.088;2022-07-09T04:49:30;25.40;;;17.58;;
69627;SDS011;56850;51.984;5.088;2022-07-09T04:52:03;26.60;;;18.33;;
69627;SDS011;56850;51.984;5.088;2022-07-09T04:54:31;22.50;;;17.23;;
69627;SDS011;56850;51.984;5.088;2022-07-09T04:56:58;25.88;;;17.35;;
69627;SDS011;56850;51.984;5.088;2022-07-09T04:59:25;24.63;;;17.45;;
69627;SDS011;56850;51.984;5.088;2022-07-09T05:01:52;25.00;;;17.85;;
69627;SDS011;56850;51.984;5.088;2022-07-09T05:04:19;26.05;;;19.33;;
69627;SDS011;56850;51.984;5.088;2022-07-09T05:06:46;24.98;;;18.85;;
69627;SDS011;56850;51.984;5.088;2022-07-09T05:09:16;26.83;;;18.13;;
69627;SDS011;56850;51.984;5.088;2022-07-09T05:11:43;27.15;;;18.63;;
69627;SDS011;56850;51.984;5.088;2022-07-09T05:14:10;28.73;;;19.02;;
69627;SDS011;56850;51.984;5.088;2022-07-09T05:16:37;24.42;;;19.15;;
69627;SDS011;56850;51.984;5.088;2022-07-09T05:19:06;26.38;;;19.58;;
69627;SDS011;56850;51.984;5.088;2022-07-09T05:21:33;26.05;;;17.95;;
69627;SDS011;56850;51.984;5.088;2022-07-09T05:24:00;26.15;;;19.13;;
69627;SDS011;56850;51.984;5.088;2022-07-09T05:26:28;24.33;;;17.90;;
69627;SDS011;56850;51.984;5.088;2022-07-09T05:28:56;26.63;;;18.90;;
69627;SDS011;56850;51.984;5.088;2022-07-09T05:31:26;21.70;;;17.88;;
69627;SDS011;56850;51.984;5.088;2022-07-09T05:34:01;28.23;;;17.90;;
69627;SDS011;56850;51.984;5.088;2022-07-09T05:36:29;30.58;;;18.38;;
69627;SDS011;56850;51.984;5.088;2022-07-09T05:38:56;27.73;;;18.85;;
69627;SDS011;56850;51.984;5.088;2022-07-09T05:41:25;25.45;;;18.92;;
69627;SDS011;56850;51.984;5.088;2022-07-09T05:43:52;27.67;;;18.48;;
69627;SDS011;56850;51.984;5.088;2022-07-09T05:46:20;23.63;;;17.10;;
69627;SDS011;56850;51.984;5.088;2022-07-09T05:48:48;26.27;;;18.65;;
69627;SDS011;56850;51.984;5.088;2022-07-09T05:51:15;27.05;;;17.98;;
69627;SDS011;56850;51.984;5.088;2022-07-09T05:53:42;26.08;;;18.55;;
69627;SDS011;56850;51.984;5.088;2022-07-09T05:56:10;22.98;;;17.42;;
69627;SDS011;56850;51.984;5.088;2022-07-09T05:58:37;24.42;;;17.50;;
69627;SDS011;56850;51.984;5.088;2022-07-09T06:01:04;24.75;;;16.17;;
69627;SDS011;56850;51.984;5.088;2022-07-09T06:03:34;22.13;;;16.52;;
69627;SDS011;56850;51.984;5.088;2022-07-09T06:06:02;18.98;;;16.15;;
69627;SDS011;56850;51.984;5.088;2022-07-09T06:08:28;22.77;;;15.55;;
69627;SDS011;56850;51.984;5.088;2022-07-09T06:10:55;23.52;;;16.05;;
69627;SDS011;56850;51.984;5.088;2022-07-09T06:13:22;23.50;;;15.82;;
69627;SDS011;56850;51.984;5.088;2022-07-09T06:15:49;22.60;;;15.13;;
69627;SDS011;56850;51.984;5.088;2022-07-09T06:18:16;22.50;;;15.15;;
69627;SDS011;56850;51.984;5.088;2022-07-09T06:20:43;20.15;;;14.45;;
69627;SDS011;56850;51.984;5.088;2022-07-09T06:23:11;20.52;;;16.30;;
69627;SDS011;56850;51.984;5.088;2022-07-09T06:25:38;22.33;;;16.05;;
69627;SDS011;56850;51.984;5.088;2022-07-09T06:28:06;22.98;;;14.45;;
69627;SDS011;56850;51.984;5.088;2022-07-09T06:30:33;19.38;;;14.48;;
69627;SDS011;56850;51.984;5.088;2022-07-09T06:33:03;18.45;;;15.35;;
69627;SDS011;56850;51.984;5.088;2022-07-09T06:35:30;20.55;;;14.93;;
69627;SDS011;56850;51.984;5.088;2022-07-09T06:37:57;18.30;;;14.07;;
69627;SDS011;56850;51.984;5.088;2022-07-09T06:40:24;18.42;;;13.75;;
69627;SDS011;56850;51.984;5.088;2022-07-09T06:42:51;16.17;;;13.82;;
69627;SDS011;56850;51.984;5.088;2022-07-09T06:45:22;18.52;;;14.10;;
69627;SDS011;56850;51.984;5.088;2022-07-09T06:47:49;17.05;;;13.50;;
69627;SDS011;56850;51.984;5.088;2022-07-09T06:50:16;15.88;;;12.75;;
69627;SDS011;56850;51.984;5.088;2022-07-09T06:52:43;19.35;;;13.25;;
69627;SDS011;56850;51.984;5.088;2022-07-09T06:55:11;15.65;;;12.65;;
69627;SDS011;56850;51.984;5.088;2022-07-09T06:57:38;16.85;;;13.55;;
69627;SDS011;56850;51.984;5.088;2022-07-09T07:00:05;18.05;;;12.80;;
69627;SDS011;56850;51.984;5.088;2022-07-09T07:02:32;14.13;;;11.57;;
69627;SDS011;56850;51.984;5.088;2022-07-09T07:05:00;18.45;;;12.55;;
69627;SDS011;56850;51.984;5.088;2022-07-09T07:07:27;17.70;;;13.52;;
69627;SDS011;56850;51.984;5.088;2022-07-09T07:09:54;16.98;;;12.55;;
69627;SDS011;56850;51.984;5.088;2022-07-09T07:12:21;16.50;;;13.05;;
69627;SDS011;56850;51.984;5.088;2022-07-09T07:14:48;14.73;;;11.07;;
69627;SDS011;56850;51.984;5.088;2022-07-09T07:17:15;16.88;;;12.68;;
69627;SDS011;56850;51.984;5.088;2022-07-09T07:19:42;16.42;;;12.77;;
69627;SDS011;56850;51.984;5.088;2022-07-09T07:22:09;16.67;;;12.65;;
69627;SDS011;56850;51.984;5.088;2022-07-09T07:24:36;17.98;;;12.88;;
69627;SDS011;56850;51.984;5.088;2022-07-09T07:27:03;19.20;;;13.10;;
69627;SDS011;56850;51.984;5.088;2022-07-09T07:29:30;15.30;;;12.05;;
69627;SDS011;56850;51.984;5.088;2022-07-09T07:31:57;17.75;;;12.40;;
69627;SDS011;56850;51.984;5.088;2022-07-09T07:34:25;17.85;;;12.98;;
69627;SDS011;56850;51.984;5.088;2022-07-09T07:36:52;15.65;;;11.73;;
69627;SDS011;56850;51.984;5.088;2022-07-09T07:39:19;16.33;;;10.98;;
69627;SDS011;56850;51.984;5.088;2022-07-09T07:41:51;17.48;;;11.38;;
69627;SDS011;56850;51.984;5.088;2022-07-09T07:44:18;15.70;;;9.65;;
69627;SDS011;56850;51.984;5.088;2022-07-09T07:46:45;13.15;;;10.00;;
69627;SDS011;56850;51.984;5.088;2022-07-09T07:49:12;15.80;;;10.85;;
69627;SDS011;56850;51.984;5.088;2022-07-09T07:51:39;12.90;;;9.80;;
69627;SDS011;56850;51.984;5.088;2022-07-09T07:54:06;13.07;;;10.02;;
69627;SDS011;56850;51.984;5.088;2022-07-09T07:56:33;14.45;;;10.50;;
69627;SDS011;56850;51.984;5.088;2022-07-09T07:59:02;14.52;;;11.38;;
69627;SDS011;56850;51.984;5.088;2022-07-09T08:01:29;16.05;;;11.02;;
69627;SDS011;56850;51.984;5.088;2022-07-09T08:03:56;13.35;;;10.18;;
69627;SDS011;56850;51.984;5.088;2022-07-09T08:06:24;14.25;;;11.25;;
69627;SDS011;56850;51.984;5.088;2022-07-09T08:08:50;13.60;;;10.68;;
69627;SDS011;56850;51.984;5.088;2022-07-09T08:11:17;17.42;;;10.98;;
69627;SDS011;56850;51.984;5.088;2022-07-09T08:13:44;15.43;;;10.93;;
69627;SDS011;56850;51.984;5.088;2022-07-09T08:16:11;15.30;;;10.43;;
69627;SDS011;56850;51.984;5.088;2022-07-09T08:18:38;12.38;;;9.85;;
69627;SDS011;56850;51.984;5.088;2022-07-09T08:21:07;12.25;;;10.00;;
69627;SDS011;56850;51.984;5.088;2022-07-09T08:23:33;10.50;;;8.75;;
69627;SDS011;56850;51.984;5.088;2022-07-09T08:26:18;10.82;;;8.55;;
69627;SDS011;56850;51.984;5.088;2022-07-09T08:28:55;15.07;;;9.30;;
69627;SDS011;56850;51.984;5.088;2022-07-09T08:31:23;12.90;;;8.38;;
69627;SDS011;56850;51.984;5.088;2022-07-09T08:33:50;10.93;;;6.80;;
69627;SDS011;56850;51.984;5.088;2022-07-09T08:36:18;7.60;;;5.80;;
69627;SDS011;56850;51.984;5.088;2022-07-09T08:38:45;5.53;;;4.80;;
69627;SDS011;56850;51.984;5.088;2022-07-09T08:41:13;7.85;;;4.53;;
69627;SDS011;56850;51.984;5.088;2022-07-09T08:43:51;7.07;;;4.40;;
69627;SDS011;56850;51.984;5.088;2022-07-09T08:46:18;6.80;;;4.72;;
69627;SDS011;56850;51.984;5.088;2022-07-09T08:48:46;5.68;;;4.30;;
69627;SDS011;56850;51.984;5.088;2022-07-09T08:51:14;7.75;;;3.88;;
69627;SDS011;56850;51.984;5.088;2022-07-09T08:53:42;5.40;;;3.40;;
69627;SDS011;56850;51.984;5.088;2022-07-09T08:56:10;6.65;;;3.50;;
69627;SDS011;56850;51.984;5.088;2022-07-09T08:58:37;5.97;;;4.10;;
69627;SDS011;56850;51.984;5.088;2022-07-09T09:01:05;4.60;;;3.13;;
69627;SDS011;56850;51.984;5.088;2022-07-09T09:03:33;5.00;;;3.67;;
69627;SDS011;56850;51.984;5.088;2022-07-09T09:06:03;5.65;;;3.88;;
69627;SDS011;56850;51.984;5.088;2022-07-09T09:08:36;5.60;;;4.35;;
69627;SDS011;56850;51.984;5.088;2022-07-09T09:11:22;10.23;;;4.15;;
69627;SDS011;56850;51.984;5.088;2022-07-09T09:13:50;9.60;;;5.35;;
69627;SDS011;56850;51.984;5.088;2022-07-09T11:29:37;2.07;;;1.40;;
69627;SDS011;56850;51.984;5.088;2022-07-09T11:32:04;2.63;;;1.40;;
69627;SDS011;56850;51.984;5.088;2022-07-09T11:34:31;3.83;;;1.60;;
69627;SDS011;56850;51.984;5.088;2022-07-09T11:36:58;2.70;;;1.50;;
69627;SDS011;56850;51.984;5.088;2022-07-09T11:39:29;1.88;;;1.40;;
69627;SDS011;56850;51.984;5.088;2022-07-09T11:41:58;3.03;;;1.33;;
69627;SDS011;56850;51.984;5.088;2022-07-09T11:44:30;1.95;;;1.40;;
69627;SDS011;56850;51.984;5.088;2022-07-09T11:47:08;2.45;;;1.60;;
69627;SDS011;56850;51.984;5.088;2022-07-09T11:49:39;3.42;;;1.50;;
69627;SDS011;56850;51.984;5.088;2022-07-09T11:52:21;6.32;;;1.52;;
69627;SDS011;56850;51.984;5.088;2022-07-09T11:57:35;3.42;;;1.48;;
69627;SDS011;56850;51.984;5.088;2022-07-09T12:00:06;4.05;;;1.40;;
69627;SDS011;56850;51.984;5.088;2022-07-09T12:02:39;3.17;;;1.60;;
69627;SDS011;56850;51.984;5.088;2022-07-09T12:05:06;2.70;;;1.20;;
69627;SDS011;56850;51.984;5.088;2022-07-09T12:07:35;3.93;;;1.40;;
69627;SDS011;56850;51.984;5.088;2022-07-09T12:10:03;2.45;;;1.33;;
69627;SDS011;56850;51.984;5.088;2022-07-09T12:12:35;2.10;;;1.30;;
69627;SDS011;56850;51.984;5.088;2022-07-09T12:15:03;3.88;;;1.38;;
69627;SDS011;56850;51.984;5.088;2022-07-09T12:17:34;4.10;;;1.65;;
69627;SDS011;56850;51.984;5.088;2022-07-09T12:20:02;3.83;;;1.23;;
69627;SDS011;56850;51.984;5.088;2022-07-09T12:22:35;2.35;;;1.55;;
69627;SDS011;56850;51.984;5.088;2022-07-09T12:25:02;2.72;;;1.50;;
69627;SDS011;56850;51.984;5.088;2022-07-09T12:27:30;3.35;;;1.55;;
69627;SDS011;56850;51.984;5.088;2022-07-09T12:29:56;3.28;;;1.60;;
69627;SDS011;56850;51.984;5.088;2022-07-09T12:32:24;4.10;;;1.80;;
69627;SDS011;56850;51.984;5.088;2022-07-09T12:34:51;4.97;;;1.80;;
69627;SDS011;56850;51.984;5.088;2022-07-09T12:37:18;4.40;;;1.70;;
69627;SDS011;56850;51.984;5.088;2022-07-09T12:39:44;5.13;;;1.50;;
69627;SDS011;56850;51.984;5.088;2022-07-09T12:42:17;3.42;;;1.23;;
69627;SDS011;56850;51.984;5.088;2022-07-09T12:44:45;5.27;;;1.60;;
69627;SDS011;56850;51.984;5.088;2022-07-09T12:47:12;4.13;;;1.48;;
69627;SDS011;56850;51.984;5.088;2022-07-09T12:49:39;4.03;;;2.10;;
69627;SDS011;56850;51.984;5.088;2022-07-09T12:52:06;2.92;;;1.40;;
69627;SDS011;56850;51.984;5.088;2022-07-09T12:54:34;3.85;;;1.60;;
69627;SDS011;56850;51.984;5.088;2022-07-09T12:57:01;4.63;;;1.90;;
69627;SDS011;56850;51.984;5.088;2022-07-09T12:59:35;5.28;;;1.55;;
69627;SDS011;56850;51.984;5.088;2022-07-09T13:02:03;3.75;;;1.60;;
69627;SDS011;56850;51.984;5.088;2022-07-09T13:04:32;5.05;;;1.70;;
69627;SDS011;56850;51.984;5.088;2022-07-09T13:06:59;3.67;;;1.70;;
69627;SDS011;56850;51.984;5.088;2022-07-09T13:09:26;4.87;;;1.40;;
69627;SDS011;56850;51.984;5.088;2022-07-09T13:11:54;3.42;;;1.50;;
69627;SDS011;56850;51.984;5.088;2022-07-09T13:14:22;4.55;;;1.90;;
69627;SDS011;56850;51.984;5.088;2022-07-09T13:16:50;3.85;;;1.70;;
69627;SDS011;56850;51.984;5.088;2022-07-09T13:19:37;5.03;;;1.95;;
69627;SDS011;56850;51.984;5.088;2022-07-09T13:22:04;4.30;;;2.00;;
69627;SDS011;56850;51.984;5.088;2022-07-09T13:24:33;4.43;;;1.60;;
69627;SDS011;56850;51.984;5.088;2022-07-09T13:27:01;5.47;;;1.80;;
69627;SDS011;56850;51.984;5.088;2022-07-09T13:29:34;4.43;;;1.40;;
69627;SDS011;56850;51.984;5.088;2022-07-09T13:32:01;3.40;;;1.88;;
69627;SDS011;56850;51.984;5.088;2022-07-09T13:34:28;4.30;;;1.40;;
69627;SDS011;56850;51.984;5.088;2022-07-09T13:36:54;3.20;;;1.40;;
69627;SDS011;56850;51.984;5.088;2022-07-09T13:39:21;7.60;;;1.73;;
69627;SDS011;56850;51.984;5.088;2022-07-09T13:41:48;2.85;;;1.50;;
69627;SDS011;56850;51.984;5.088;2022-07-09T13:44:15;4.80;;;1.60;;
69627;SDS011;56850;51.984;5.088;2022-07-09T13:46:42;4.37;;;1.70;;
69627;SDS011;56850;51.984;5.088;2022-07-09T13:49:09;5.45;;;1.40;;
69627;SDS011;56850;51.984;5.088;2022-07-09T13:51:36;6.78;;;1.88;;
69627;SDS011;56850;51.984;5.088;2022-07-09T13:54:04;5.18;;;1.50;;
69627;SDS011;56850;51.984;5.088;2022-07-09T13:56:31;2.70;;;1.40;;
69627;SDS011;56850;51.984;5.088;2022-07-09T13:58:59;2.33;;;1.30;;
69627;SDS011;56850;51.984;5.088;2022-07-09T14:01:26;6.05;;;1.58;;
69627;SDS011;56850;51.984;5.088;2022-07-09T14:03:54;10.40;;;1.90;;
69627;SDS011;56850;51.984;5.088;2022-07-09T14:06:22;6.63;;;2.20;;
69627;SDS011;56850;51.984;5.088;2022-07-09T14:09:10;6.13;;;1.67;;
69627;SDS011;56850;51.984;5.088;2022-07-09T14:11:37;7.00;;;2.13;;
69627;SDS011;56850;51.984;5.088;2022-07-09T14:14:04;7.25;;;1.75;;
69627;SDS011;56850;51.984;5.088;2022-07-09T14:16:31;5.70;;;1.90;;
69627;SDS011;56850;51.984;5.088;2022-07-09T14:18:58;7.13;;;1.65;;
69627;SDS011;56850;51.984;5.088;2022-07-09T14:21:25;12.35;;;2.10;;
69627;SDS011;56850;51.984;5.088;2022-07-09T14:23:55;4.77;;;1.63;;
69627;SDS011;56850;51.984;5.088;2022-07-09T14:26:22;5.32;;;1.90;;
69627;SDS011;56850;51.984;5.088;2022-07-09T14:28:50;6.53;;;2.05;;
69627;SDS011;56850;51.984;5.088;2022-07-09T14:31:17;6.38;;;1.83;;
69627;SDS011;56850;51.984;5.088;2022-07-09T14:33:44;6.75;;;2.15;;
69627;SDS011;56850;51.984;5.088;2022-07-09T14:36:11;5.73;;;1.77;;
69627;SDS011;56850;51.984;5.088;2022-07-09T14:38:38;5.72;;;1.90;;
69627;SDS011;56850;51.984;5.088;2022-07-09T14:41:06;6.80;;;2.00;;
69627;SDS011;56850;51.984;5.088;2022-07-09T14:43:33;8.05;;;2.30;;
69627;SDS011;56850;51.984;5.088;2022-07-09T14:46:00;6.40;;;1.88;;
69627;SDS011;56850;51.984;5.088;2022-07-09T14:48:27;11.03;;;3.23;;
69627;SDS011;56850;51.984;5.088;2022-07-09T14:50:55;11.95;;;2.33;;
69627;SDS011;56850;51.984;5.088;2022-07-09T14:53:22;5.57;;;1.98;;
69627;SDS011;56850;51.984;5.088;2022-07-09T14:55:49;4.72;;;1.77;;
69627;SDS011;56850;51.984;5.088;2022-07-09T14:58:16;5.70;;;2.15;;
69627;SDS011;56850;51.984;5.088;2022-07-09T15:00:43;6.27;;;1.50;;
69627;SDS011;56850;51.984;5.088;2022-07-09T15:03:10;4.40;;;1.70;;
69627;SDS011;56850;51.984;5.088;2022-07-09T15:05:37;8.40;;;1.90;;
69627;SDS011;56850;51.984;5.088;2022-07-09T15:08:10;6.50;;;2.13;;
69627;SDS011;56850;51.984;5.088;2022-07-09T15:10:38;4.47;;;1.60;;
69627;SDS011;56850;51.984;5.088;2022-07-09T15:13:05;4.97;;;1.60;;
69627;SDS011;56850;51.984;5.088;2022-07-09T15:15:33;4.65;;;1.70;;
69627;SDS011;56850;51.984;5.088;2022-07-09T15:18:01;5.78;;;1.77;;
69627;SDS011;56850;51.984;5.088;2022-07-09T15:20:29;7.30;;;1.60;;
69627;SDS011;56850;51.984;5.088;2022-07-09T15:22:57;4.43;;;1.77;;
69627;SDS011;56850;51.984;5.088;2022-07-09T15:25:25;5.57;;;1.77;;
69627;SDS011;56850;51.984;5.088;2022-07-09T15:27:53;5.20;;;1.55;;
69627;SDS011;56850;51.984;5.088;2022-07-09T15:30:20;3.25;;;1.50;;
69627;SDS011;56850;51.984;5.088;2022-07-09T15:32:48;3.35;;;1.50;;
69627;SDS011;56850;51.984;5.088;2022-07-09T15:35:15;4.40;;;1.60;;
69627;SDS011;56850;51.984;5.088;2022-07-09T15:37:42;5.90;;;1.67;;
69627;SDS011;56850;51.984;5.088;2022-07-09T15:40:09;5.20;;;1.80;;
69627;SDS011;56850;51.984;5.088;2022-07-09T15:42:37;4.90;;;1.70;;
69627;SDS011;56850;51.984;5.088;2022-07-09T15:45:04;3.53;;;1.65;;
69627;SDS011;56850;51.984;5.088;2022-07-09T15:47:32;6.55;;;4.35;;
69627;SDS011;56850;51.984;5.088;2022-07-09T15:50:07;7.23;;;2.17;;
69627;SDS011;56850;51.984;5.088;2022-07-09T15:52:35;5.22;;;2.25;;
69627;SDS011;56850;51.984;5.088;2022-07-09T15:55:08;9.95;;;4.13;;
69627;SDS011;56850;51.984;5.088;2022-07-09T15:57:36;5.88;;;2.10;;
69627;SDS011;56850;51.984;5.088;2022-07-09T16:00:04;6.07;;;1.90;;
69627;SDS011;56850;51.984;5.088;2022-07-09T16:02:32;8.30;;;2.17;;
69627;SDS011;56850;51.984;5.088;2022-07-09T16:05:00;7.43;;;2.13;;
69627;SDS011;56850;51.984;5.088;2022-07-09T16:07:28;7.22;;;2.00;;
69627;SDS011;56850;51.984;5.088;2022-07-09T16:09:54;8.82;;;2.58;;
69627;SDS011;56850;51.984;5.088;2022-07-09T16:12:21;12.27;;;2.13;;
69627;SDS011;56850;51.984;5.088;2022-07-09T16:15:07;6.27;;;1.60;;
69627;SDS011;56850;51.984;5.088;2022-07-09T16:17:35;3.83;;;1.90;;
69627;SDS011;56850;51.984;5.088;2022-07-09T16:20:02;10.00;;;2.92;;
69627;SDS011;56850;51.984;5.088;2022-07-09T16:22:29;8.55;;;2.47;;
69627;SDS011;56850;51.984;5.088;2022-07-09T16:24:56;7.35;;;2.38;;
69627;SDS011;56850;51.984;5.088;2022-07-09T16:27:23;8.57;;;3.17;;
69627;SDS011;56850;51.984;5.088;2022-07-09T16:29:50;5.88;;;2.25;;
69627;SDS011;56850;51.984;5.088;2022-07-09T16:32:18;4.45;;;2.38;;
69627;SDS011;56850;51.984;5.088;2022-07-09T16:34:47;6.45;;;2.63;;
69627;SDS011;56850;51.984;5.088;2022-07-09T16:37:14;6.82;;;2.30;;
69627;SDS011;56850;51.984;5.088;2022-07-09T16:39:41;9.27;;;2.00;;
69627;SDS011;56850;51.984;5.088;2022-07-09T16:42:08;6.72;;;1.80;;
69627;SDS011;56850;51.984;5.088;2022-07-09T16:44:35;7.20;;;2.50;;
69627;SDS011;56850;51.984;5.088;2022-07-09T16:47:02;4.65;;;2.25;;
69627;SDS011;56850;51.984;5.088;2022-07-09T16:49:29;4.90;;;2.20;;
69627;SDS011;56850;51.984;5.088;2022-07-09T16:52:15;7.17;;;4.10;;
69627;SDS011;56850;51.984;5.088;2022-07-09T16:54:43;7.50;;;3.20;;